Waterloo Airport
CYKF : now visible

Aeroporto :











RITROVATECI SU...

 
LOGIN :

Iscrizione | Disclaimer

   EN    FR    IT 

 









Sommario :    VFR   VFR Marginale   IFR   IFR Intensivo   IFR Molto Intensivo
Visibilità : 
Base nubi : 
>= 8 km
>= 3000ft
5 / 8 km
1000 / 3000 ft
1500m / 5 km
500 / 1000 ft
800 / 1500m
200 / 500 ft
< 800m
< 200 ft
Simboli :   Temporali  Nebbia  Neve Forte  Precipitazioni Forti  Vento > 20 kt






- Altitudine del aeroporto : 1054 ft
- Codice IATA : YKF


CYKF - Waterloo

ULTIMO METAR :
  • 072200Z AUTO 19003KT 9SM BKN028 M03/M07 A3037 RMK SLP302

METARs OBSOLETI :
  • 072100Z AUTO 21006KT 9SM SCT028 M02/M08 A3036 RMK SLP299
  • 072000Z AUTO 23008KT 9SM BKN028 BKN033 M02/M07 A3036 RMK SLP298

TAF TAF CYKF
Valido dal 07 a 20 ore il 08 a 08 ore UTC


071939Z 0720/0808 24008KT P6SM BKN030
TEMPO 0720/0724 BKN020
FM080000 18005KT P6SM FEW030
BECMG 0806/0808 18010KT RMK FCST BASED ON AUTO OBS. NXT FCST BY 080200Z



MetMap, La meteo Aeronautica in un colpo d'occhio ! - Copyright ORBIFLY Dicembre 2007 - Disclaimer

ORBIFLY MET'MAP TEAM :

Programmazione e sviluppo : Alexandra Zaïnal
Concezione : Baudouin d'Aumeries
Aiuto per la programmazione : Marc-Olivier Méhu
Supporto tecnico e logistico : Manuel Goepfert
Aiuto per la traduzione : Arnaldo La Scala

Contatto : metmap@orbifly.com




FONTI E CREDITI :

   NOAA       Earth
Advisory